NOZ666 ENKB-ENBR
Flight info
| Callsign | NOZ666 |
|---|---|
| Flight time | N/A |
| Altitude | 32000 |
| Route | TUTOP DCT NIDGI |
| Aircraft | B738/M-SDE2E3FGHIRWXY/LB1 |
Departure
| Time | 2026-04-23 19:18 |
|---|---|
| Airport | Kristiansund Airport, Kvernberget (ENKB) |
Arrival
| Time | N/A |
|---|---|
| Airport | Bergen Airport, Flesland (ENBR) |
| Time | Latitude | Longitude | Altitude | Speed | Heading |
|---|---|---|---|---|---|
| 2026-04-23 19:13 | 63.11325 | 7.82661 | 212 ft | 0 kts | 296° |
| 2026-04-23 19:14 | 63.11323 | 7.82611 | 216 ft | 4 kts | 242° |
| 2026-04-23 19:14 | 63.11294 | 7.82576 | 210 ft | 5 kts | 198° |
| 2026-04-23 19:14 | 63.11242 | 7.82605 | 215 ft | 12 kts | 145° |
| 2026-04-23 19:15 | 63.11237 | 7.82791 | 215 ft | 13 kts | 73° |
| 2026-04-23 19:15 | 63.11282 | 7.83067 | 211 ft | 23 kts | 66° |
| 2026-04-23 19:15 | 63.11327 | 7.83400 | 212 ft | 22 kts | 75° |
| 2026-04-23 19:15 | 63.11372 | 7.83722 | 214 ft | 22 kts | 78° |
| 2026-04-23 19:16 | 63.11424 | 7.84030 | 209 ft | 21 kts | 70° |
| 2026-04-23 19:16 | 63.11471 | 7.84332 | 200 ft | 21 kts | 71° |
| 2026-04-23 19:16 | 63.11516 | 7.84626 | 199 ft | 20 kts | 71° |
| 2026-04-23 19:17 | 63.11523 | 7.84767 | 202 ft | 4 kts | 32° |
| 2026-04-23 19:17 | 63.11532 | 7.84735 | 203 ft | 0 kts | 251° |
| 2026-04-23 19:17 | 63.11507 | 7.84569 | 205 ft | 38 kts | 251° |
| 2026-04-23 19:18 | 63.11354 | 7.83563 | 215 ft | 98 kts | 251° |
| 2026-04-23 19:18 | 63.11080 | 7.81784 | 295 ft | 141 kts | 252° |
| 2026-04-23 19:18 | 63.10760 | 7.79751 | 1074 ft | 135 kts | 250° |
| 2026-04-23 19:18 | 63.10432 | 7.77666 | 1628 ft | 157 kts | 252° |
| 2026-04-23 19:19 | 63.09633 | 7.72346 | 2250 ft | 198 kts | 252° |
| 2026-04-23 19:19 | 63.09187 | 7.69406 | 2744 ft | 205 kts | 252° |
| 2026-04-23 19:20 | 63.08268 | 7.63390 | 3946 ft | 210 kts | 253° |
| 2026-04-23 19:20 | 63.07790 | 7.60289 | 4431 ft | 218 kts | 253° |
| 2026-04-23 19:20 | 63.07287 | 7.57036 | 4781 ft | 233 kts | 254° |
| 2026-04-23 19:20 | 63.06750 | 7.53570 | 5282 ft | 245 kts | 255° |
| 2026-04-23 19:21 | 63.06173 | 7.49932 | 5879 ft | 258 kts | 251° |
| 2026-04-23 19:21 | 63.03709 | 7.43881 | 7459 ft | 275 kts | 227° |
| 2026-04-23 19:21 | 63.02255 | 7.41071 | 8164 ft | 281 kts | 226° |
| 2026-04-23 19:22 | 63.00775 | 7.38225 | 8902 ft | 285 kts | 226° |
| 2026-04-23 19:22 | 62.99270 | 7.35330 | 9628 ft | 290 kts | 226° |
| 2026-04-23 19:22 | 62.96167 | 7.29341 | 10749 ft | 311 kts | 226° |
| 2026-04-23 19:23 | 62.94483 | 7.26075 | 10912 ft | 334 kts | 225° |
| 2026-04-23 19:23 | 62.92689 | 7.22601 | 11075 ft | 354 kts | 225° |
| 2026-04-23 19:23 | 62.90789 | 7.18931 | 11231 ft | 374 kts | 225° |
| 2026-04-23 19:24 | 62.86766 | 7.11200 | 12093 ft | 391 kts | 224° |
| 2026-04-23 19:24 | 62.84711 | 7.07265 | 12741 ft | 394 kts | 224° |
| 2026-04-23 19:24 | 62.80539 | 6.99287 | 13951 ft | 403 kts | 224° |
| 2026-04-23 19:25 | 62.76287 | 6.91178 | 15238 ft | 407 kts | 223° |
| 2026-04-23 19:25 | 62.72006 | 6.83042 | 16657 ft | 409 kts | 223° |
| 2026-04-23 19:26 | 62.67698 | 6.74883 | 17994 ft | 412 kts | 224° |
| 2026-04-23 19:26 | 62.65532 | 6.70794 | 18592 ft | 415 kts | 223° |
| 2026-04-23 19:27 | 62.61218 | 6.62406 | 19516 ft | 422 kts | 224° |
| 2026-04-23 19:27 | 62.54661 | 6.49478 | 21068 ft | 428 kts | 224° |
| 2026-04-23 19:28 | 62.50215 | 6.40786 | 22000 ft | 433 kts | 224° |
| 2026-04-23 19:28 | 62.45702 | 6.32017 | 22918 ft | 438 kts | 224° |
| 2026-04-23 19:29 | 62.43425 | 6.27611 | 23354 ft | 441 kts | 224° |
| 2026-04-23 19:29 | 62.38827 | 6.18740 | 24138 ft | 446 kts | 224° |
| 2026-04-23 19:30 | 62.34199 | 6.09852 | 24983 ft | 446 kts | 224° |
| 2026-04-23 19:30 | 62.31877 | 6.05407 | 25346 ft | 448 kts | 224° |
| 2026-04-23 19:30 | 62.27198 | 5.96474 | 26002 ft | 452 kts | 224° |
| 2026-04-23 19:31 | 62.24842 | 5.91990 | 26333 ft | 453 kts | 224° |
| 2026-04-23 19:31 | 62.22476 | 5.87500 | 26668 ft | 455 kts | 223° |
| 2026-04-23 19:31 | 62.20102 | 5.83003 | 26978 ft | 456 kts | 223° |
| 2026-04-23 19:31 | 62.17717 | 5.78494 | 27296 ft | 458 kts | 223° |
| 2026-04-23 19:32 | 62.15361 | 5.74051 | 27720 ft | 457 kts | 223° |
| 2026-04-23 19:32 | 62.12985 | 5.69579 | 28220 ft | 454 kts | 223° |
| 2026-04-23 19:32 | 62.10622 | 5.65142 | 28694 ft | 451 kts | 223° |
| 2026-04-23 19:32 | 62.08267 | 5.60728 | 29135 ft | 450 kts | 223° |
| 2026-04-23 19:33 | 62.05919 | 5.56331 | 29593 ft | 448 kts | 223° |
| 2026-04-23 19:33 | 62.03575 | 5.51956 | 30044 ft | 447 kts | 223° |
| 2026-04-23 19:33 | 61.98605 | 5.44090 | 30769 ft | 450 kts | 204° |
| 2026-04-23 19:34 | 61.95635 | 5.41968 | 31138 ft | 450 kts | 199° |
| 2026-04-23 19:34 | 61.92654 | 5.39979 | 31493 ft | 449 kts | 200° |
| 2026-04-23 19:34 | 61.86694 | 5.35925 | 32106 ft | 449 kts | 200° |
| 2026-04-23 19:35 | 61.83727 | 5.33873 | 32396 ft | 450 kts | 200° |
| 2026-04-23 19:35 | 61.77742 | 5.29707 | 32394 ft | 453 kts | 200° |
| 2026-04-23 19:36 | 61.71781 | 5.25561 | 32399 ft | 448 kts | 201° |
| 2026-04-23 19:36 | 61.65869 | 5.21466 | 32404 ft | 447 kts | 200° |
| 2026-04-23 19:37 | 61.59958 | 5.17390 | 32403 ft | 447 kts | 200° |
| 2026-04-23 19:37 | 61.54053 | 5.13336 | 32401 ft | 447 kts | 200° |
| 2026-04-23 19:38 | 61.48142 | 5.09295 | 32402 ft | 447 kts | 200° |
| 2026-04-23 19:38 | 61.42231 | 5.05268 | 32402 ft | 447 kts | 200° |